sensor_id;sensor_type;location;lat;lon;timestamp;P1;durP1;ratioP1;P2;durP2;ratioP2
12224;SDS011;6175;50.956;11.064;2023-07-22T00:02:24;4.47;;;3.20;;
12224;SDS011;6175;50.956;11.064;2023-07-22T00:04:52;3.10;;;2.90;;
12224;SDS011;6175;50.956;11.064;2023-07-22T00:07:19;3.95;;;2.70;;
12224;SDS011;6175;50.956;11.064;2023-07-22T00:09:46;3.00;;;2.72;;
12224;SDS011;6175;50.956;11.064;2023-07-22T00:12:15;3.53;;;3.22;;
12224;SDS011;6175;50.956;11.064;2023-07-22T00:14:42;3.63;;;3.33;;
12224;SDS011;6175;50.956;11.064;2023-07-22T00:17:09;5.45;;;3.08;;
12224;SDS011;6175;50.956;11.064;2023-07-22T00:19:38;3.08;;;2.83;;
12224;SDS011;6175;50.956;11.064;2023-07-22T00:22:05;3.28;;;3.00;;
12224;SDS011;6175;50.956;11.064;2023-07-22T00:24:32;3.30;;;3.00;;
12224;SDS011;6175;50.956;11.064;2023-07-22T00:26:59;3.90;;;3.60;;
12224;SDS011;6175;50.956;11.064;2023-07-22T00:29:26;3.72;;;3.42;;
12224;SDS011;6175;50.956;11.064;2023-07-22T00:31:54;3.58;;;3.28;;
12224;SDS011;6175;50.956;11.064;2023-07-22T00:34:21;3.50;;;3.20;;
12224;SDS011;6175;50.956;11.064;2023-07-22T00:36:49;3.53;;;3.22;;
12224;SDS011;6175;50.956;11.064;2023-07-22T00:39:17;4.18;;;3.38;;
12224;SDS011;6175;50.956;11.064;2023-07-22T00:41:45;3.83;;;3.53;;
12224;SDS011;6175;50.956;11.064;2023-07-22T00:44:12;3.58;;;3.28;;
12224;SDS011;6175;50.956;11.064;2023-07-22T00:46:39;3.40;;;3.20;;
12224;SDS011;6175;50.956;11.064;2023-07-22T00:49:07;3.50;;;3.20;;
12224;SDS011;6175;50.956;11.064;2023-07-22T00:51:34;3.15;;;2.85;;
12224;SDS011;6175;50.956;11.064;2023-07-22T00:54:03;3.28;;;3.08;;
12224;SDS011;6175;50.956;11.064;2023-07-22T00:56:31;3.90;;;3.60;;
12224;SDS011;6175;50.956;11.064;2023-07-22T00:59:00;3.75;;;3.45;;
12224;SDS011;6175;50.956;11.064;2023-07-22T01:01:27;3.75;;;3.45;;
12224;SDS011;6175;50.956;11.064;2023-07-22T01:03:54;3.20;;;3.00;;
12224;SDS011;6175;50.956;11.064;2023-07-22T01:06:21;3.75;;;3.38;;
12224;SDS011;6175;50.956;11.064;2023-07-22T01:08:49;4.20;;;3.30;;
12224;SDS011;6175;50.956;11.064;2023-07-22T01:11:18;3.90;;;3.47;;
12224;SDS011;6175;50.956;11.064;2023-07-22T01:13:45;3.80;;;3.50;;
12224;SDS011;6175;50.956;11.064;2023-07-22T01:16:12;5.40;;;4.00;;
12224;SDS011;6175;50.956;11.064;2023-07-22T01:18:39;3.30;;;2.78;;
12224;SDS011;6175;50.956;11.064;2023-07-22T01:21:06;3.35;;;3.15;;
12224;SDS011;6175;50.956;11.064;2023-07-22T01:23:35;3.55;;;3.35;;
12224;SDS011;6175;50.956;11.064;2023-07-22T01:26:03;4.43;;;4.03;;
12224;SDS011;6175;50.956;11.064;2023-07-22T01:28:30;3.88;;;3.15;;
12224;SDS011;6175;50.956;11.064;2023-07-22T01:30:57;3.58;;;3.28;;
12224;SDS011;6175;50.956;11.064;2023-07-22T01:33:26;3.30;;;3.10;;
12224;SDS011;6175;50.956;11.064;2023-07-22T01:35:53;3.67;;;3.38;;
12224;SDS011;6175;50.956;11.064;2023-07-22T01:38:20;3.20;;;2.90;;
12224;SDS011;6175;50.956;11.064;2023-07-22T01:40:48;4.80;;;2.92;;
12224;SDS011;6175;50.956;11.064;2023-07-22T01:43:15;3.38;;;3.08;;
12224;SDS011;6175;50.956;11.064;2023-07-22T01:45:42;2.63;;;2.42;;
12224;SDS011;6175;50.956;11.064;2023-07-22T01:48:10;3.97;;;3.20;;
12224;SDS011;6175;50.956;11.064;2023-07-22T01:50:38;3.80;;;3.30;;
12224;SDS011;6175;50.956;11.064;2023-07-22T01:53:05;4.57;;;3.50;;
12224;SDS011;6175;50.956;11.064;2023-07-22T01:55:32;3.58;;;3.28;;
12224;SDS011;6175;50.956;11.064;2023-07-22T01:58:01;4.40;;;4.00;;
12224;SDS011;6175;50.956;11.064;2023-07-22T02:00:28;4.03;;;3.60;;
12224;SDS011;6175;50.956;11.064;2023-07-22T02:02:55;3.42;;;3.13;;
12224;SDS011;6175;50.956;11.064;2023-07-22T02:05:23;3.58;;;3.28;;
12224;SDS011;6175;50.956;11.064;2023-07-22T02:07:50;4.50;;;3.33;;
12224;SDS011;6175;50.956;11.064;2023-07-22T02:10:20;5.93;;;3.80;;
12224;SDS011;6175;50.956;11.064;2023-07-22T02:12:47;4.22;;;3.90;;
12224;SDS011;6175;50.956;11.064;2023-07-22T02:15:16;3.78;;;3.50;;
12224;SDS011;6175;50.956;11.064;2023-07-22T02:17:43;4.80;;;3.50;;
12224;SDS011;6175;50.956;11.064;2023-07-22T02:20:10;3.70;;;3.40;;
12224;SDS011;6175;50.956;11.064;2023-07-22T02:22:37;4.07;;;3.67;;
12224;SDS011;6175;50.956;11.064;2023-07-22T02:25:05;4.20;;;3.90;;
12224;SDS011;6175;50.956;11.064;2023-07-22T02:27:35;3.58;;;3.28;;
12224;SDS011;6175;50.956;11.064;2023-07-22T02:30:04;4.32;;;3.92;;
12224;SDS011;6175;50.956;11.064;2023-07-22T02:32:36;4.55;;;3.78;;
12224;SDS011;6175;50.956;11.064;2023-07-22T02:35:04;4.15;;;3.85;;
12224;SDS011;6175;50.956;11.064;2023-07-22T02:37:31;4.38;;;3.97;;
12224;SDS011;6175;50.956;11.064;2023-07-22T02:39:59;3.55;;;3.25;;
12224;SDS011;6175;50.956;11.064;2023-07-22T02:42:26;3.92;;;3.63;;
12224;SDS011;6175;50.956;11.064;2023-07-22T02:44:53;5.32;;;4.40;;
12224;SDS011;6175;50.956;11.064;2023-07-22T02:47:20;4.15;;;3.85;;
12224;SDS011;6175;50.956;11.064;2023-07-22T02:49:49;6.20;;;4.18;;
12224;SDS011;6175;50.956;11.064;2023-07-22T02:52:16;4.38;;;4.00;;
12224;SDS011;6175;50.956;11.064;2023-07-22T02:54:53;4.35;;;4.00;;
12224;SDS011;6175;50.956;11.064;2023-07-22T02:57:30;4.53;;;4.22;;
12224;SDS011;6175;50.956;11.064;2023-07-22T02:59:57;4.43;;;4.03;;
12224;SDS011;6175;50.956;11.064;2023-07-22T03:02:24;6.47;;;5.75;;
12224;SDS011;6175;50.956;11.064;2023-07-22T03:04:53;4.95;;;4.55;;
12224;SDS011;6175;50.956;11.064;2023-07-22T03:07:21;5.35;;;4.85;;
12224;SDS011;6175;50.956;11.064;2023-07-22T03:09:52;5.50;;;5.00;;
12224;SDS011;6175;50.956;11.064;2023-07-22T03:12:19;6.38;;;5.55;;
12224;SDS011;6175;50.956;11.064;2023-07-22T03:14:46;7.70;;;5.90;;
12224;SDS011;6175;50.956;11.064;2023-07-22T03:17:14;7.07;;;5.70;;
12224;SDS011;6175;50.956;11.064;2023-07-22T03:19:42;6.50;;;5.90;;
12224;SDS011;6175;50.956;11.064;2023-07-22T03:22:13;6.78;;;6.10;;
12224;SDS011;6175;50.956;11.064;2023-07-22T03:24:41;8.73;;;6.70;;
12224;SDS011;6175;50.956;11.064;2023-07-22T03:27:08;6.40;;;5.80;;
12224;SDS011;6175;50.956;11.064;2023-07-22T03:29:35;5.95;;;5.38;;
12224;SDS011;6175;50.956;11.064;2023-07-22T03:32:03;7.10;;;6.28;;
12224;SDS011;6175;50.956;11.064;2023-07-22T03:34:30;7.25;;;5.68;;
12224;SDS011;6175;50.956;11.064;2023-07-22T03:36:57;7.78;;;6.65;;
12224;SDS011;6175;50.956;11.064;2023-07-22T03:39:26;7.40;;;6.68;;
12224;SDS011;6175;50.956;11.064;2023-07-22T03:41:53;6.78;;;6.18;;
12224;SDS011;6175;50.956;11.064;2023-07-22T03:44:20;7.10;;;6.43;;
12224;SDS011;6175;50.956;11.064;2023-07-22T03:46:47;7.15;;;6.50;;
12224;SDS011;6175;50.956;11.064;2023-07-22T03:49:14;7.68;;;7.00;;
12224;SDS011;6175;50.956;11.064;2023-07-22T03:51:41;6.80;;;6.20;;
12224;SDS011;6175;50.956;11.064;2023-07-22T03:54:08;12.65;;;11.43;;
12224;SDS011;6175;50.956;11.064;2023-07-22T03:56:38;8.38;;;7.65;;
12224;SDS011;6175;50.956;11.064;2023-07-22T03:59:06;8.00;;;7.30;;
12224;SDS011;6175;50.956;11.064;2023-07-22T04:01:33;8.55;;;7.40;;
12224;SDS011;6175;50.956;11.064;2023-07-22T04:04:00;7.15;;;6.55;;
12224;SDS011;6175;50.956;11.064;2023-07-22T04:06:27;19.85;;;18.00;;
12224;SDS011;6175;50.956;11.064;2023-07-22T04:08:54;21.40;;;19.30;;
12224;SDS011;6175;50.956;11.064;2023-07-22T04:11:21;9.95;;;8.90;;
12224;SDS011;6175;50.956;11.064;2023-07-22T04:13:50;7.80;;;7.00;;
12224;SDS011;6175;50.956;11.064;2023-07-22T04:16:17;7.28;;;6.68;;
12224;SDS011;6175;50.956;11.064;2023-07-22T04:18:44;7.45;;;6.55;;
12224;SDS011;6175;50.956;11.064;2023-07-22T04:21:12;8.05;;;7.25;;
12224;SDS011;6175;50.956;11.064;2023-07-22T04:23:39;9.88;;;7.28;;
12224;SDS011;6175;50.956;11.064;2023-07-22T04:26:06;7.30;;;6.60;;
12224;SDS011;6175;50.956;11.064;2023-07-22T04:28:33;8.18;;;6.60;;
12224;SDS011;6175;50.956;11.064;2023-07-22T04:31:02;7.22;;;6.53;;
12224;SDS011;6175;50.956;11.064;2023-07-22T04:33:29;7.90;;;7.20;;
12224;SDS011;6175;50.956;11.064;2023-07-22T04:35:57;8.85;;;6.40;;
12224;SDS011;6175;50.956;11.064;2023-07-22T04:38:26;8.95;;;7.30;;
12224;SDS011;6175;50.956;11.064;2023-07-22T04:40:53;7.45;;;6.63;;
12224;SDS011;6175;50.956;11.064;2023-07-22T04:43:20;7.85;;;6.93;;
12224;SDS011;6175;50.956;11.064;2023-07-22T04:45:48;5.82;;;5.30;;
12224;SDS011;6175;50.956;11.064;2023-07-22T04:48:17;5.78;;;5.18;;
12224;SDS011;6175;50.956;11.064;2023-07-22T04:50:44;6.20;;;5.65;;
12224;SDS011;6175;50.956;11.064;2023-07-22T04:53:11;7.15;;;6.43;;
12224;SDS011;6175;50.956;11.064;2023-07-22T04:55:39;6.35;;;5.75;;
12224;SDS011;6175;50.956;11.064;2023-07-22T04:58:06;5.55;;;5.05;;
12224;SDS011;6175;50.956;11.064;2023-07-22T05:00:34;6.63;;;5.97;;
12224;SDS011;6175;50.956;11.064;2023-07-22T05:03:02;8.48;;;7.15;;
12224;SDS011;6175;50.956;11.064;2023-07-22T05:05:31;6.85;;;6.15;;
12224;SDS011;6175;50.956;11.064;2023-07-22T05:07:58;7.60;;;6.80;;
12224;SDS011;6175;50.956;11.064;2023-07-22T05:10:25;9.18;;;7.95;;
12224;SDS011;6175;50.956;11.064;2023-07-22T05:12:54;7.90;;;7.13;;
12224;SDS011;6175;50.956;11.064;2023-07-22T05:15:22;9.38;;;7.38;;
12224;SDS011;6175;50.956;11.064;2023-07-22T05:17:49;8.32;;;7.50;;
12224;SDS011;6175;50.956;11.064;2023-07-22T05:20:17;8.65;;;7.70;;
12224;SDS011;6175;50.956;11.064;2023-07-22T05:22:45;9.32;;;8.38;;
12224;SDS011;6175;50.956;11.064;2023-07-22T05:25:12;8.95;;;7.10;;
12224;SDS011;6175;50.956;11.064;2023-07-22T05:27:40;9.48;;;7.10;;
12224;SDS011;6175;50.956;11.064;2023-07-22T05:30:07;7.22;;;6.53;;
12224;SDS011;6175;50.956;11.064;2023-07-22T05:32:34;9.65;;;7.93;;
12224;SDS011;6175;50.956;11.064;2023-07-22T05:35:02;9.45;;;8.32;;
12224;SDS011;6175;50.956;11.064;2023-07-22T05:37:30;9.68;;;7.82;;
12224;SDS011;6175;50.956;11.064;2023-07-22T05:39:59;10.40;;;8.27;;
12224;SDS011;6175;50.956;11.064;2023-07-22T05:42:26;8.48;;;7.60;;
12224;SDS011;6175;50.956;11.064;2023-07-22T05:44:53;9.98;;;8.07;;
12224;SDS011;6175;50.956;11.064;2023-07-22T05:47:21;10.50;;;7.47;;
12224;SDS011;6175;50.956;11.064;2023-07-22T05:49:48;9.60;;;7.88;;
12224;SDS011;6175;50.956;11.064;2023-07-22T05:52:16;9.55;;;8.55;;
12224;SDS011;6175;50.956;11.064;2023-07-22T05:54:43;8.07;;;7.18;;
12224;SDS011;6175;50.956;11.064;2023-07-22T05:57:12;8.68;;;7.53;;
12224;SDS011;6175;50.956;11.064;2023-07-22T05:59:39;7.97;;;7.18;;
12224;SDS011;6175;50.956;11.064;2023-07-22T06:02:07;8.40;;;7.28;;
12224;SDS011;6175;50.956;11.064;2023-07-22T06:04:35;8.93;;;6.70;;
12224;SDS011;6175;50.956;11.064;2023-07-22T06:07:04;7.75;;;6.82;;
12224;SDS011;6175;50.956;11.064;2023-07-22T06:09:31;7.75;;;6.95;;
12224;SDS011;6175;50.956;11.064;2023-07-22T06:11:58;9.00;;;6.93;;
12224;SDS011;6175;50.956;11.064;2023-07-22T06:14:27;8.57;;;6.68;;
12224;SDS011;6175;50.956;11.064;2023-07-22T06:16:54;7.63;;;6.32;;
12224;SDS011;6175;50.956;11.064;2023-07-22T06:19:21;8.05;;;7.20;;
12224;SDS011;6175;50.956;11.064;2023-07-22T06:21:49;7.57;;;6.85;;
12224;SDS011;6175;50.956;11.064;2023-07-22T06:24:16;6.70;;;6.03;;
12224;SDS011;6175;50.956;11.064;2023-07-22T06:26:43;8.65;;;7.07;;
12224;SDS011;6175;50.956;11.064;2023-07-22T06:29:11;7.65;;;6.85;;
12224;SDS011;6175;50.956;11.064;2023-07-22T06:31:40;11.10;;;8.10;;
12224;SDS011;6175;50.956;11.064;2023-07-22T06:34:07;8.23;;;6.75;;
12224;SDS011;6175;50.956;11.064;2023-07-22T06:36:34;8.25;;;7.38;;
12224;SDS011;6175;50.956;11.064;2023-07-22T06:39:01;8.55;;;7.65;;
12224;SDS011;6175;50.956;11.064;2023-07-22T06:41:29;7.70;;;6.05;;
12224;SDS011;6175;50.956;11.064;2023-07-22T06:43:56;10.05;;;7.55;;
12224;SDS011;6175;50.956;11.064;2023-07-22T06:46:23;9.13;;;6.68;;
12224;SDS011;6175;50.956;11.064;2023-07-22T06:48:52;6.97;;;6.22;;
12224;SDS011;6175;50.956;11.064;2023-07-22T06:51:18;7.53;;;6.82;;
12224;SDS011;6175;50.956;11.064;2023-07-22T06:53:45;7.80;;;7.00;;
12224;SDS011;6175;50.956;11.064;2023-07-22T06:56:12;8.38;;;6.72;;
12224;SDS011;6175;50.956;11.064;2023-07-22T06:58:40;7.70;;;6.65;;
12224;SDS011;6175;50.956;11.064;2023-07-22T07:01:07;8.10;;;6.90;;
12224;SDS011;6175;50.956;11.064;2023-07-22T07:03:34;7.75;;;6.90;;
12224;SDS011;6175;50.956;11.064;2023-07-22T07:06:02;6.25;;;5.65;;
12224;SDS011;6175;50.956;11.064;2023-07-22T07:08:30;6.45;;;5.85;;
12224;SDS011;6175;50.956;11.064;2023-07-22T07:10:58;7.88;;;6.13;;
12224;SDS011;6175;50.956;11.064;2023-07-22T07:13:25;8.82;;;6.22;;
12224;SDS011;6175;50.956;11.064;2023-07-22T07:15:53;6.07;;;5.40;;
12224;SDS011;6175;50.956;11.064;2023-07-22T07:18:21;6.50;;;5.90;;
12224;SDS011;6175;50.956;11.064;2023-07-22T07:20:48;7.20;;;5.72;;
12224;SDS011;6175;50.956;11.064;2023-07-22T07:23:17;8.00;;;5.45;;
12224;SDS011;6175;50.956;11.064;2023-07-22T07:25:44;6.88;;;5.47;;
12224;SDS011;6175;50.956;11.064;2023-07-22T07:28:11;6.10;;;5.43;;
12224;SDS011;6175;50.956;11.064;2023-07-22T07:30:39;5.25;;;4.68;;
12224;SDS011;6175;50.956;11.064;2023-07-22T07:33:07;5.75;;;5.20;;
12224;SDS011;6175;50.956;11.064;2023-07-22T07:35:34;5.68;;;5.18;;
12224;SDS011;6175;50.956;11.064;2023-07-22T07:38:01;5.43;;;4.93;;
12224;SDS011;6175;50.956;11.064;2023-07-22T07:40:30;5.63;;;4.85;;
12224;SDS011;6175;50.956;11.064;2023-07-22T07:42:58;5.95;;;5.28;;
12224;SDS011;6175;50.956;11.064;2023-07-22T07:45:25;6.80;;;5.82;;
12224;SDS011;6175;50.956;11.064;2023-07-22T07:47:52;6.22;;;4.88;;
12224;SDS011;6175;50.956;11.064;2023-07-22T07:50:19;5.15;;;4.60;;
12224;SDS011;6175;50.956;11.064;2023-07-22T07:52:46;6.80;;;4.97;;
12224;SDS011;6175;50.956;11.064;2023-07-22T07:55:13;6.47;;;4.70;;
12224;SDS011;6175;50.956;11.064;2023-07-22T07:57:42;5.65;;;5.03;;
12224;SDS011;6175;50.956;11.064;2023-07-22T08:00:09;4.28;;;3.88;;
12224;SDS011;6175;50.956;11.064;2023-07-22T08:02:37;4.63;;;4.22;;
12224;SDS011;6175;50.956;11.064;2023-07-22T08:05:04;4.75;;;4.25;;
12224;SDS011;6175;50.956;11.064;2023-07-22T08:07:31;4.47;;;4.07;;
12224;SDS011;6175;50.956;11.064;2023-07-22T08:10:00;4.28;;;3.88;;
12224;SDS011;6175;50.956;11.064;2023-07-22T08:12:29;4.28;;;3.88;;
12224;SDS011;6175;50.956;11.064;2023-07-22T08:14:57;5.13;;;4.55;;
12224;SDS011;6175;50.956;11.064;2023-07-22T08:17:24;5.43;;;4.57;;
12224;SDS011;6175;50.956;11.064;2023-07-22T08:19:51;7.70;;;4.43;;
12224;SDS011;6175;50.956;11.064;2023-07-22T08:22:18;4.82;;;4.38;;
12224;SDS011;6175;50.956;11.064;2023-07-22T08:24:45;4.00;;;3.67;;
12224;SDS011;6175;50.956;11.064;2023-07-22T08:27:12;4.80;;;4.32;;
12224;SDS011;6175;50.956;11.064;2023-07-22T08:29:39;4.35;;;3.83;;
12224;SDS011;6175;50.956;11.064;2023-07-22T08:32:08;5.07;;;4.43;;
12224;SDS011;6175;50.956;11.064;2023-07-22T08:34:35;6.10;;;4.25;;
12224;SDS011;6175;50.956;11.064;2023-07-22T08:37:02;6.75;;;4.50;;
12224;SDS011;6175;50.956;11.064;2023-07-22T08:39:29;4.18;;;3.88;;
12224;SDS011;6175;50.956;11.064;2023-07-22T08:41:58;4.53;;;4.10;;
12224;SDS011;6175;50.956;11.064;2023-07-22T08:44:28;6.15;;;4.07;;
12224;SDS011;6175;50.956;11.064;2023-07-22T08:47:00;4.28;;;3.75;;
12224;SDS011;6175;50.956;11.064;2023-07-22T08:49:30;5.05;;;4.55;;
12224;SDS011;6175;50.956;11.064;2023-07-22T08:51:57;5.03;;;4.50;;
12224;SDS011;6175;50.956;11.064;2023-07-22T08:54:26;4.85;;;4.35;;
12224;SDS011;6175;50.956;11.064;2023-07-22T08:56:54;4.32;;;3.92;;
12224;SDS011;6175;50.956;11.064;2023-07-22T08:59:21;5.35;;;3.90;;
12224;SDS011;6175;50.956;11.064;2023-07-22T09:01:48;5.00;;;4.00;;
12224;SDS011;6175;50.956;11.064;2023-07-22T09:04:17;3.88;;;3.58;;
12224;SDS011;6175;50.956;11.064;2023-07-22T09:06:45;4.20;;;3.80;;
12224;SDS011;6175;50.956;11.064;2023-07-22T09:09:13;4.72;;;4.15;;
12224;SDS011;6175;50.956;11.064;2023-07-22T09:11:40;3.75;;;3.30;;
12224;SDS011;6175;50.956;11.064;2023-07-22T09:14:08;4.40;;;4.00;;
12224;SDS011;6175;50.956;11.064;2023-07-22T09:16:36;4.88;;;4.28;;
12224;SDS011;6175;50.956;11.064;2023-07-22T09:19:04;4.10;;;3.70;;
12224;SDS011;6175;50.956;11.064;2023-07-22T09:21:31;5.15;;;4.10;;
12224;SDS011;6175;50.956;11.064;2023-07-22T09:24:02;4.32;;;3.55;;
12224;SDS011;6175;50.956;11.064;2023-07-22T09:26:46;3.92;;;3.63;;
12224;SDS011;6175;50.956;11.064;2023-07-22T09:29:13;5.07;;;3.90;;
12224;SDS011;6175;50.956;11.064;2023-07-22T09:31:48;4.32;;;3.92;;
12224;SDS011;6175;50.956;11.064;2023-07-22T09:34:15;4.35;;;4.03;;
12224;SDS011;6175;50.956;11.064;2023-07-22T09:36:49;4.75;;;4.30;;
12224;SDS011;6175;50.956;11.064;2023-07-22T09:39:18;3.80;;;3.50;;
12224;SDS011;6175;50.956;11.064;2023-07-22T09:41:46;4.53;;;3.60;;
12224;SDS011;6175;50.956;11.064;2023-07-22T09:44:13;4.90;;;4.18;;
12224;SDS011;6175;50.956;11.064;2023-07-22T09:46:40;5.03;;;4.40;;
12224;SDS011;6175;50.956;11.064;2023-07-22T09:49:08;4.97;;;4.22;;
12224;SDS011;6175;50.956;11.064;2023-07-22T09:51:36;3.90;;;3.60;;
12224;SDS011;6175;50.956;11.064;2023-07-22T09:54:05;3.80;;;3.50;;
12224;SDS011;6175;50.956;11.064;2023-07-22T09:56:42;3.97;;;3.63;;
12224;SDS011;6175;50.956;11.064;2023-07-22T09:59:09;4.95;;;3.60;;
12224;SDS011;6175;50.956;11.064;2023-07-22T10:01:38;4.00;;;3.70;;
12224;SDS011;6175;50.956;11.064;2023-07-22T10:04:06;4.65;;;3.78;;
12224;SDS011;6175;50.956;11.064;2023-07-22T10:06:33;3.72;;;3.42;;
12224;SDS011;6175;50.956;11.064;2023-07-22T10:09:01;3.80;;;3.50;;
12224;SDS011;6175;50.956;11.064;2023-07-22T10:11:33;4.15;;;3.75;;
12224;SDS011;6175;50.956;11.064;2023-07-22T10:14:01;4.07;;;3.53;;
12224;SDS011;6175;50.956;11.064;2023-07-22T10:16:28;3.90;;;3.40;;
12224;SDS011;6175;50.956;11.064;2023-07-22T10:18:57;3.60;;;3.30;;
12224;SDS011;6175;50.956;11.064;2023-07-22T10:21:24;3.55;;;3.25;;
12224;SDS011;6175;50.956;11.064;2023-07-22T10:23:51;3.53;;;3.22;;
12224;SDS011;6175;50.956;11.064;2023-07-22T10:26:19;3.42;;;3.13;;
12224;SDS011;6175;50.956;11.064;2023-07-22T10:28:47;4.90;;;3.88;;
12224;SDS011;6175;50.956;11.064;2023-07-22T10:31:15;4.50;;;3.10;;
12224;SDS011;6175;50.956;11.064;2023-07-22T10:33:44;3.80;;;3.20;;
12224;SDS011;6175;50.956;11.064;2023-07-22T10:36:13;3.40;;;3.10;;
12224;SDS011;6175;50.956;11.064;2023-07-22T10:38:41;3.40;;;3.10;;
12224;SDS011;6175;50.956;11.064;2023-07-22T10:41:11;3.65;;;3.35;;
12224;SDS011;6175;50.956;11.064;2023-07-22T10:43:39;3.45;;;3.15;;
12224;SDS011;6175;50.956;11.064;2023-07-22T10:46:09;4.07;;;3.67;;
12224;SDS011;6175;50.956;11.064;2023-07-22T10:48:38;3.40;;;3.10;;
12224;SDS011;6175;50.956;11.064;2023-07-22T10:51:11;3.63;;;3.33;;
12224;SDS011;6175;50.956;11.064;2023-07-22T10:53:40;3.47;;;3.17;;
12224;SDS011;6175;50.956;11.064;2023-07-22T10:56:13;4.43;;;3.25;;
12224;SDS011;6175;50.956;11.064;2023-07-22T10:59:00;4.13;;;3.25;;
12224;SDS011;6175;50.956;11.064;2023-07-22T11:01:34;3.53;;;3.22;;
12224;SDS011;6175;50.956;11.064;2023-07-22T11:04:08;3.17;;;2.97;;
12224;SDS011;6175;50.956;11.064;2023-07-22T11:06:36;3.60;;;3.30;;
12224;SDS011;6175;50.956;11.064;2023-07-22T11:09:04;3.40;;;3.10;;
12224;SDS011;6175;50.956;11.064;2023-07-22T11:11:35;3.72;;;3.42;;
12224;SDS011;6175;50.956;11.064;2023-07-22T11:14:12;4.07;;;3.78;;
12224;SDS011;6175;50.956;11.064;2023-07-22T11:16:41;3.60;;;3.30;;
12224;SDS011;6175;50.956;11.064;2023-07-22T11:19:08;4.13;;;3.72;;
12224;SDS011;6175;50.956;11.064;2023-07-22T11:21:36;3.60;;;3.30;;
12224;SDS011;6175;50.956;11.064;2023-07-22T11:24:03;3.92;;;3.58;;
12224;SDS011;6175;50.956;11.064;2023-07-22T11:26:30;3.45;;;3.15;;
12224;SDS011;6175;50.956;11.064;2023-07-22T11:28:59;3.33;;;3.03;;
12224;SDS011;6175;50.956;11.064;2023-07-22T11:31:30;3.70;;;3.40;;
12224;SDS011;6175;50.956;11.064;2023-07-22T11:33:59;3.53;;;3.22;;
12224;SDS011;6175;50.956;11.064;2023-07-22T11:36:26;3.08;;;2.83;;
12224;SDS011;6175;50.956;11.064;2023-07-22T11:38:53;3.70;;;3.40;;
12224;SDS011;6175;50.956;11.064;2023-07-22T11:41:20;4.75;;;3.50;;
12224;SDS011;6175;50.956;11.064;2023-07-22T11:43:47;4.32;;;3.92;;
12224;SDS011;6175;50.956;11.064;2023-07-22T11:46:14;3.17;;;2.88;;
12224;SDS011;6175;50.956;11.064;2023-07-22T11:48:48;3.33;;;3.03;;
12224;SDS011;6175;50.956;11.064;2023-07-22T11:51:18;3.70;;;3.40;;
12224;SDS011;6175;50.956;11.064;2023-07-22T11:53:46;4.00;;;3.70;;
12224;SDS011;6175;50.956;11.064;2023-07-22T11:56:17;3.55;;;3.00;;
12224;SDS011;6175;50.956;11.064;2023-07-22T11:58:48;3.63;;;3.33;;
12224;SDS011;6175;50.956;11.064;2023-07-22T12:01:15;3.67;;;3.38;;
12224;SDS011;6175;50.956;11.064;2023-07-22T12:03:42;4.05;;;3.60;;
12224;SDS011;6175;50.956;11.064;2023-07-22T12:06:09;3.53;;;2.92;;
12224;SDS011;6175;50.956;11.064;2023-07-22T12:08:42;3.75;;;3.45;;
12224;SDS011;6175;50.956;11.064;2023-07-22T12:11:15;3.88;;;3.35;;
12224;SDS011;6175;50.956;11.064;2023-07-22T12:13:43;3.40;;;3.08;;
12224;SDS011;6175;50.956;11.064;2023-07-22T12:16:11;3.47;;;3.17;;
12224;SDS011;6175;50.956;11.064;2023-07-22T12:18:42;3.47;;;3.17;;
12224;SDS011;6175;50.956;11.064;2023-07-22T12:21:09;4.43;;;3.45;;
12224;SDS011;6175;50.956;11.064;2023-07-22T12:23:38;3.15;;;2.95;;
12224;SDS011;6175;50.956;11.064;2023-07-22T12:26:05;3.95;;;3.25;;
12224;SDS011;6175;50.956;11.064;2023-07-22T12:28:32;4.13;;;3.40;;
12224;SDS011;6175;50.956;11.064;2023-07-22T12:30:59;3.95;;;3.60;;
12224;SDS011;6175;50.956;11.064;2023-07-22T12:33:27;4.32;;;3.38;;
12224;SDS011;6175;50.956;11.064;2023-07-22T12:35:54;3.45;;;3.15;;
12224;SDS011;6175;50.956;11.064;2023-07-22T12:38:21;3.60;;;3.30;;
12224;SDS011;6175;50.956;11.064;2023-07-22T12:40:49;3.53;;;3.20;;
12224;SDS011;6175;50.956;11.064;2023-07-22T12:43:16;3.90;;;3.40;;
12224;SDS011;6175;50.956;11.064;2023-07-22T12:45:43;4.30;;;3.50;;
12224;SDS011;6175;50.956;11.064;2023-07-22T12:48:11;3.72;;;3.15;;
12224;SDS011;6175;50.956;11.064;2023-07-22T12:50:38;3.40;;;3.10;;
12224;SDS011;6175;50.956;11.064;2023-07-22T12:53:05;3.60;;;3.30;;
12224;SDS011;6175;50.956;11.064;2023-07-22T12:55:33;3.88;;;3.58;;
12224;SDS011;6175;50.956;11.064;2023-07-22T12:58:02;3.60;;;3.30;;
12224;SDS011;6175;50.956;11.064;2023-07-22T13:00:29;3.50;;;3.20;;
12224;SDS011;6175;50.956;11.064;2023-07-22T13:02:56;3.53;;;3.22;;
12224;SDS011;6175;50.956;11.064;2023-07-22T13:05:23;3.65;;;3.33;;
12224;SDS011;6175;50.956;11.064;2023-07-22T13:07:51;3.55;;;3.25;;
12224;SDS011;6175;50.956;11.064;2023-07-22T13:10:18;3.67;;;3.33;;
12224;SDS011;6175;50.956;11.064;2023-07-22T13:12:47;3.53;;;3.22;;
12224;SDS011;6175;50.956;11.064;2023-07-22T13:15:15;3.38;;;2.95;;
12224;SDS011;6175;50.956;11.064;2023-07-22T13:17:42;4.50;;;3.25;;
12224;SDS011;6175;50.956;11.064;2023-07-22T13:20:10;3.05;;;2.80;;
12224;SDS011;6175;50.956;11.064;2023-07-22T13:22:38;3.30;;;3.03;;
12224;SDS011;6175;50.956;11.064;2023-07-22T13:25:05;3.45;;;3.15;;
12224;SDS011;6175;50.956;11.064;2023-07-22T13:27:34;4.55;;;3.33;;
12224;SDS011;6175;50.956;11.064;2023-07-22T13:30:03;3.75;;;3.45;;
12224;SDS011;6175;50.956;11.064;2023-07-22T13:32:32;3.53;;;3.22;;
12224;SDS011;6175;50.956;11.064;2023-07-22T13:34:59;4.88;;;3.30;;
12224;SDS011;6175;50.956;11.064;2023-07-22T13:37:26;3.95;;;3.08;;
12224;SDS011;6175;50.956;11.064;2023-07-22T13:39:53;3.72;;;3.33;;
12224;SDS011;6175;50.956;11.064;2023-07-22T13:42:22;3.70;;;3.35;;
12224;SDS011;6175;50.956;11.064;2023-07-22T13:44:49;3.60;;;3.30;;
12224;SDS011;6175;50.956;11.064;2023-07-22T13:47:16;3.50;;;3.20;;
12224;SDS011;6175;50.956;11.064;2023-07-22T13:49:45;3.70;;;3.25;;
12224;SDS011;6175;50.956;11.064;2023-07-22T13:52:12;3.85;;;3.55;;
12224;SDS011;6175;50.956;11.064;2023-07-22T13:54:39;3.45;;;3.15;;
12224;SDS011;6175;50.956;11.064;2023-07-22T13:57:06;3.53;;;3.22;;
12224;SDS011;6175;50.956;11.064;2023-07-22T13:59:34;4.90;;;3.58;;
12224;SDS011;6175;50.956;11.064;2023-07-22T14:02:01;3.65;;;3.35;;
12224;SDS011;6175;50.956;11.064;2023-07-22T14:04:28;3.67;;;3.38;;
12224;SDS011;6175;50.956;11.064;2023-07-22T14:06:57;3.97;;;3.65;;
12224;SDS011;6175;50.956;11.064;2023-07-22T14:09:24;3.92;;;3.53;;
12224;SDS011;6175;50.956;11.064;2023-07-22T14:11:51;3.50;;;3.20;;
12224;SDS011;6175;50.956;11.064;2023-07-22T14:14:18;7.45;;;4.22;;
12224;SDS011;6175;50.956;11.064;2023-07-22T14:16:53;4.20;;;3.70;;
12224;SDS011;6175;50.956;11.064;2023-07-22T14:19:20;5.50;;;3.40;;
12224;SDS011;6175;50.956;11.064;2023-07-22T14:21:47;3.65;;;3.35;;
12224;SDS011;6175;50.956;11.064;2023-07-22T14:24:16;4.70;;;4.05;;
12224;SDS011;6175;50.956;11.064;2023-07-22T14:26:43;4.53;;;3.63;;
12224;SDS011;6175;50.956;11.064;2023-07-22T14:29:10;4.45;;;3.90;;
12224;SDS011;6175;50.956;11.064;2023-07-22T14:31:37;4.05;;;3.65;;
12224;SDS011;6175;50.956;11.064;2023-07-22T14:34:04;3.50;;;3.20;;
12224;SDS011;6175;50.956;11.064;2023-07-22T14:36:31;5.13;;;3.65;;
12224;SDS011;6175;50.956;11.064;2023-07-22T14:38:58;3.63;;;3.33;;
12224;SDS011;6175;50.956;11.064;2023-07-22T14:41:27;3.97;;;3.60;;
12224;SDS011;6175;50.956;11.064;2023-07-22T14:43:55;3.50;;;3.20;;
12224;SDS011;6175;50.956;11.064;2023-07-22T14:46:22;4.38;;;3.50;;
12224;SDS011;6175;50.956;11.064;2023-07-22T14:48:49;3.60;;;3.30;;
12224;SDS011;6175;50.956;11.064;2023-07-22T14:51:16;4.05;;;3.60;;
12224;SDS011;6175;50.956;11.064;2023-07-22T14:53:43;4.43;;;3.47;;